createdAt,value
2018-08-09T00:03:37.714Z,26.76
2018-08-09T00:07:41.331Z,26.61
2018-08-09T00:11:44.943Z,26.51
2018-08-09T00:15:48.442Z,26.46
2018-08-09T00:19:51.940Z,26.47
2018-08-09T00:23:55.434Z,26.48
2018-08-09T00:27:58.851Z,26.43
2018-08-09T00:32:02.366Z,26.43
2018-08-09T00:36:05.809Z,26.45
2018-08-09T00:40:09.312Z,26.47
2018-08-09T00:44:12.867Z,26.48
2018-08-09T00:48:16.338Z,26.45
2018-08-09T00:52:19.822Z,26.42
2018-08-09T00:56:23.267Z,26.41
2018-08-09T01:00:26.776Z,26.43
2018-08-09T01:04:30.210Z,26.45
2018-08-09T01:08:33.662Z,26.45
2018-08-09T01:12:37.152Z,26.41
2018-08-09T01:16:40.758Z,26.39
2018-08-09T01:20:44.252Z,26.37
2018-08-09T01:24:47.748Z,26.34
2018-08-09T01:28:51.212Z,26.35
2018-08-09T01:32:54.826Z,26.34
2018-08-09T01:36:58.280Z,26.34
2018-08-09T01:41:01.895Z,26.33
2018-08-09T01:45:05.366Z,26.31
2018-08-09T01:49:08.785Z,26.26
2018-08-09T01:53:12.295Z,26.22
2018-08-09T01:57:15.799Z,26.18
2018-08-09T02:01:19.888Z,26.14
2018-08-09T02:05:23.353Z,26.10
2018-08-09T02:09:33.384Z,26.05
2018-08-09T02:13:37.019Z,26.01
2018-08-09T02:17:40.701Z,26.00
2018-08-09T02:21:44.182Z,26.00
2018-08-09T02:25:47.716Z,26.01
2018-08-09T02:29:51.159Z,25.99
2018-08-09T02:33:54.710Z,25.99
2018-08-09T02:37:58.204Z,25.95
2018-08-09T02:42:01.712Z,25.93
2018-08-09T02:46:05.193Z,25.89
2018-08-09T02:50:08.707Z,25.87
2018-08-09T02:54:12.179Z,25.86
2018-08-09T02:58:15.630Z,25.81
2018-08-09T03:02:19.124Z,25.78
2018-08-09T03:06:22.588Z,25.72
2018-08-09T03:10:26.044Z,25.66
2018-08-09T03:14:29.467Z,25.62
2018-08-09T03:18:32.996Z,25.54
2018-08-09T03:22:36.543Z,25.54
2018-08-09T03:26:40.054Z,25.56
2018-08-09T03:30:43.499Z,25.58
2018-08-09T03:34:46.978Z,25.55
2018-08-09T03:38:50.457Z,25.53
2018-08-09T03:42:53.963Z,25.49
2018-08-09T03:46:57.477Z,25.45
2018-08-09T03:51:00.989Z,25.39
2018-08-09T03:55:04.932Z,25.29
2018-08-09T03:59:08.450Z,25.19
2018-08-09T04:03:11.995Z,25.06
2018-08-09T04:07:15.514Z,25.05
2018-08-09T04:11:19.015Z,25.05
2018-08-09T04:15:22.515Z,25.05
2018-08-09T04:19:26.021Z,25.07
2018-08-09T04:23:29.600Z,25.07
2018-08-09T04:27:33.083Z,25.05
2018-08-09T04:31:36.566Z,25.05
2018-08-09T04:35:40.034Z,25.05
2018-08-09T04:39:43.551Z,25.02
2018-08-09T04:43:47.050Z,25.02
2018-08-09T04:47:50.592Z,25.01
2018-08-09T04:51:54.091Z,24.99
2018-08-09T04:55:57.590Z,24.94
2018-08-09T05:00:01.085Z,24.93
2018-08-09T05:04:04.598Z,24.95
2018-08-09T05:08:08.442Z,24.98
2018-08-09T05:12:11.976Z,24.98
2018-08-09T05:16:15.456Z,24.95
2018-08-09T05:20:19.023Z,25.02
2018-08-09T05:24:22.452Z,25.11
2018-08-09T05:28:25.918Z,25.17
2018-08-09T05:32:29.424Z,25.30
2018-08-09T05:36:32.899Z,25.42
2018-08-09T05:40:36.428Z,25.52
2018-08-09T05:44:39.927Z,25.62
2018-08-09T05:48:43.394Z,25.74
2018-08-09T05:52:46.980Z,25.87
2018-08-09T05:56:50.423Z,26.00
2018-08-09T06:00:53.884Z,26.10
2018-08-09T06:04:57.372Z,26.20
2018-08-09T06:09:00.885Z,26.33
2018-08-09T06:13:04.376Z,26.42
2018-08-09T06:17:07.860Z,26.55
2018-08-09T06:21:11.442Z,26.68
2018-08-09T06:25:15.060Z,26.74
2018-08-09T06:29:18.554Z,26.82
2018-08-09T06:33:23.022Z,26.98
2018-08-09T06:37:26.502Z,27.13
2018-08-09T06:41:29.986Z,27.26
2018-08-09T06:45:33.444Z,27.38
2018-08-09T06:49:36.898Z,27.41
2018-08-09T06:53:40.392Z,27.45
2018-08-09T06:57:43.860Z,27.53
2018-08-09T07:01:47.306Z,27.64
2018-08-09T07:05:50.818Z,27.70
2018-08-09T07:09:54.276Z,27.83
2018-08-09T07:13:57.734Z,27.96
2018-08-09T07:18:01.162Z,28.06
2018-08-09T07:22:04.666Z,28.13
2018-08-09T07:26:08.405Z,28.21
2018-08-09T07:30:13.158Z,28.33
2018-08-09T07:34:16.619Z,28.47
2018-08-09T07:38:20.093Z,28.61
2018-08-09T07:42:23.540Z,28.73
2018-08-09T07:46:27.017Z,28.85
2018-08-09T07:50:30.493Z,29.00
2018-08-09T07:54:34.945Z,29.16
2018-08-09T07:58:38.393Z,29.35
2018-08-09T08:02:42.294Z,29.50
2018-08-09T08:06:45.782Z,29.65
2018-08-09T08:10:49.728Z,29.80
2018-08-09T08:14:53.247Z,29.91
2018-08-09T08:18:56.705Z,30.00
2018-08-09T08:23:00.246Z,30.10
2018-08-09T08:27:03.741Z,30.25
2018-08-09T08:31:07.301Z,30.33
2018-08-09T08:35:11.133Z,30.46
2018-08-09T08:39:15.054Z,30.57
2018-08-09T08:43:18.997Z,30.69
2018-08-09T08:47:23.046Z,30.79
2018-08-09T08:51:27.693Z,30.93
2018-08-09T08:55:31.681Z,31.02
2018-08-09T08:59:35.839Z,31.11
2018-08-09T09:03:39.658Z,31.22
2018-08-09T09:07:43.464Z,31.37
2018-08-09T09:11:47.348Z,31.52
2018-08-09T09:15:50.895Z,31.65
2018-08-09T09:19:54.695Z,31.76
2018-08-09T09:23:58.223Z,31.87
2018-08-09T09:28:02.061Z,32.01
2018-08-09T09:32:05.677Z,32.16
2018-08-09T09:36:10.418Z,32.30
2018-08-09T09:40:13.938Z,32.46
2018-08-09T09:44:17.480Z,32.59
2018-08-09T09:48:21.062Z,32.70
2018-08-09T09:52:24.939Z,32.83
2018-08-09T09:56:28.951Z,32.95
2018-08-09T10:00:37.817Z,33.01
2018-08-09T10:04:41.404Z,33.10
2018-08-09T10:08:44.955Z,33.11
2018-08-09T10:12:48.514Z,33.15
2018-08-09T10:16:51.994Z,33.24
2018-08-09T10:20:55.505Z,33.31
2018-08-09T10:24:59.414Z,33.41
2018-08-09T10:29:02.911Z,33.51
2018-08-09T10:33:06.632Z,33.58
2018-08-09T10:37:10.184Z,33.64
2018-08-09T10:41:13.734Z,33.69
2018-08-09T10:45:17.343Z,33.81
2018-08-09T10:49:20.834Z,33.89
2018-08-09T10:53:24.371Z,34.00
2018-08-09T10:57:28.351Z,34.11
2018-08-09T11:01:32.163Z,34.14
2018-08-09T11:05:35.739Z,34.27
2018-08-09T11:09:39.414Z,34.34
2018-08-09T11:13:44.786Z,34.46
2018-08-09T11:17:48.285Z,34.58
2018-08-09T11:21:51.789Z,34.65
2018-08-09T11:25:55.472Z,34.74
2018-08-09T11:29:59.043Z,34.83
2018-08-09T11:34:02.867Z,34.93
2018-08-09T11:38:06.408Z,35.00
2018-08-09T11:42:09.925Z,35.08
2018-08-09T11:46:13.466Z,35.17
2018-08-09T11:50:17.259Z,35.28
2018-08-09T11:54:20.799Z,35.35
2018-08-09T11:58:24.417Z,35.38
2018-08-09T12:02:28.200Z,35.43
2018-08-09T12:06:31.780Z,35.42
2018-08-09T12:10:35.350Z,35.47
2018-08-09T12:14:38.910Z,35.55
2018-08-09T12:18:42.568Z,35.69
2018-08-09T12:22:46.071Z,35.74
2018-08-09T12:26:49.654Z,35.74
2018-08-09T12:30:53.594Z,35.74
2018-08-09T12:34:57.230Z,35.80
2018-08-09T12:39:00.827Z,35.83
2018-08-09T12:43:04.521Z,35.86
2018-08-09T12:47:08.387Z,35.87
2018-08-09T12:51:11.975Z,35.88
2018-08-09T12:55:15.711Z,35.88
2018-08-09T12:59:19.553Z,35.79
2018-08-09T13:03:23.099Z,35.78
2018-08-09T13:16:17.678Z,35.69
2018-08-09T13:20:21.802Z,35.68
2018-08-09T13:24:25.234Z,35.65
2018-08-09T13:28:28.623Z,35.98
2018-08-09T13:32:32.076Z,35.86
2018-08-09T13:36:35.495Z,35.87
2018-08-09T13:40:38.884Z,35.86
2018-08-09T13:44:42.275Z,35.78
2018-08-09T13:48:45.695Z,35.70
2018-08-09T13:52:49.130Z,35.69
2018-08-09T13:56:52.546Z,35.66
2018-08-09T14:00:56.001Z,35.63
2018-08-09T14:04:59.451Z,35.52
2018-08-09T14:09:02.987Z,35.44
2018-08-09T14:13:06.982Z,35.42
2018-08-09T14:17:10.997Z,35.39
2018-08-09T14:21:16.074Z,35.41
2018-08-09T14:25:21.145Z,35.40
2018-08-09T14:29:26.373Z,35.31
2018-08-09T14:33:30.775Z,35.21
2018-08-09T14:37:36.259Z,35.19
2018-08-09T14:41:40.511Z,35.14
2018-08-09T14:45:44.745Z,35.13
2018-08-09T14:49:48.931Z,35.05
2018-08-09T14:53:53.253Z,34.99
2018-08-09T14:57:59.402Z,34.93
2018-08-09T15:02:03.747Z,34.91
2018-08-09T15:06:08.944Z,34.96
2018-08-09T15:10:13.280Z,34.98
2018-08-09T15:18:31.031Z,34.91
2018-08-09T15:22:34.723Z,34.83
2018-08-09T15:26:38.618Z,34.80
2018-08-09T15:30:42.601Z,34.76
2018-08-09T15:34:46.379Z,34.72
2018-08-09T15:38:50.013Z,34.69
2018-08-09T15:42:53.849Z,34.67
2018-08-09T15:46:57.455Z,34.60
2018-08-09T15:51:02.122Z,34.58
2018-08-09T15:55:06.710Z,34.58
2018-08-09T15:59:10.272Z,34.56
2018-08-09T16:03:13.728Z,34.55
2018-08-09T16:07:17.275Z,34.52
2018-08-09T16:11:20.826Z,34.44
2018-08-09T16:15:24.489Z,34.42
2018-08-09T16:19:28.057Z,34.34
2018-08-09T16:23:31.583Z,34.30
2018-08-09T16:27:35.272Z,34.26
2018-08-09T16:31:38.857Z,34.24
2018-08-09T16:35:42.502Z,34.23
2018-08-09T16:39:46.075Z,34.23
2018-08-09T16:43:49.580Z,34.20
2018-08-09T16:47:54.087Z,34.11
2018-08-09T16:51:57.706Z,34.07
2018-08-09T16:56:01.379Z,33.99
2018-08-09T17:00:07.499Z,33.95
2018-08-09T17:04:11.139Z,33.91
2018-08-09T17:08:14.786Z,33.85
2018-08-09T17:12:18.490Z,33.79
2018-08-09T17:16:22.201Z,33.75
2018-08-09T17:20:28.117Z,33.70
2018-08-09T17:24:31.692Z,33.63
2018-08-09T17:28:35.385Z,33.96
2018-08-09T17:32:39.103Z,33.69
2018-08-09T17:36:42.613Z,33.54
2018-08-09T17:40:46.908Z,33.46
2018-08-09T17:44:50.378Z,33.35
2018-08-09T17:48:54.202Z,33.29
2018-08-09T17:52:59.851Z,33.23
2018-08-09T17:57:03.381Z,33.15
2018-08-09T18:01:06.926Z,33.11
2018-08-09T18:05:10.825Z,33.03
2018-08-09T18:09:14.304Z,32.94
2018-08-09T18:13:17.821Z,32.88
2018-08-09T18:17:21.432Z,32.79
2018-08-09T18:21:25.004Z,32.71
2018-08-09T18:25:29.620Z,32.65
2018-08-09T18:29:33.197Z,32.59
2018-08-09T18:33:36.968Z,32.53
2018-08-09T18:37:40.586Z,32.45
2018-08-09T18:41:44.280Z,32.39
2018-08-09T18:45:47.897Z,32.35
2018-08-09T18:49:51.915Z,32.28
2018-08-09T18:53:55.676Z,32.18
2018-08-09T18:57:59.470Z,32.12
2018-08-09T19:02:03.234Z,32.05
2018-08-09T19:06:06.912Z,31.99
2018-08-09T19:10:15.386Z,31.95
2018-08-09T19:14:19.068Z,31.87
2018-08-09T19:18:22.852Z,31.82
2018-08-09T19:22:27.216Z,31.78
2018-08-09T19:26:31.065Z,31.71
2018-08-09T19:30:34.653Z,31.64
2018-08-09T19:34:38.350Z,31.55
2018-08-09T19:38:42.093Z,31.46
2018-08-09T19:42:45.557Z,31.42
2018-08-09T19:46:49.095Z,31.37
2018-08-09T19:50:52.609Z,31.29
2018-08-09T19:54:56.179Z,31.21
2018-08-09T19:58:59.639Z,31.16
2018-08-09T20:03:03.118Z,31.11
2018-08-09T20:07:07.009Z,31.07
2018-08-09T20:11:10.517Z,31.00
2018-08-09T20:15:16.473Z,30.96
2018-08-09T20:19:19.920Z,30.89
2018-08-09T20:23:23.630Z,30.80
2018-08-09T20:27:27.319Z,30.76
2018-08-09T20:31:30.860Z,30.71
2018-08-09T20:35:34.301Z,30.66
2018-08-09T20:39:37.760Z,30.64
2018-08-09T20:47:54.162Z,30.60
2018-08-09T20:51:57.656Z,30.56
2018-08-09T20:56:01.445Z,30.50
2018-08-09T21:00:08.407Z,30.44
2018-08-09T21:04:11.894Z,30.40
2018-08-09T21:08:15.334Z,30.34
2018-08-09T21:12:19.806Z,30.29
2018-08-09T21:16:23.451Z,30.21
2018-08-09T21:20:26.947Z,30.16
2018-08-09T21:24:30.435Z,30.13
2018-08-09T21:28:34.386Z,30.09
2018-08-09T21:32:37.835Z,30.06
2018-08-09T21:36:42.247Z,30.01
2018-08-09T21:40:45.771Z,29.96
2018-08-09T21:44:49.638Z,29.88
2018-08-09T21:48:53.133Z,29.78
2018-08-09T21:52:56.969Z,29.71
2018-08-09T21:57:00.613Z,29.62
2018-08-09T22:01:05.813Z,29.57
2018-08-09T22:05:14.403Z,29.52
2018-08-09T22:09:23.183Z,29.49
2018-08-09T22:13:31.838Z,29.46
2018-08-09T22:17:40.315Z,29.41
2018-08-09T22:21:48.931Z,29.35
2018-08-09T22:25:52.348Z,29.31
2018-08-09T22:29:55.910Z,29.30
2018-08-09T22:33:59.429Z,29.29
2018-08-09T22:38:02.897Z,29.24
2018-08-09T22:42:06.482Z,29.24
2018-08-09T22:46:10.099Z,29.22
2018-08-09T22:50:13.686Z,29.16
2018-08-09T22:54:17.386Z,29.08
2018-08-09T22:58:20.981Z,29.02
2018-08-09T23:02:24.512Z,29.00
2018-08-09T23:06:30.467Z,28.95
2018-08-09T23:10:34.062Z,28.90
2018-08-09T23:14:37.468Z,28.88
2018-08-09T23:18:40.899Z,28.83
2018-08-09T23:22:44.388Z,28.80
2018-08-09T23:26:47.840Z,28.80
2018-08-09T23:30:51.333Z,28.78
2018-08-09T23:34:54.764Z,28.74
2018-08-09T23:38:58.262Z,28.73
2018-08-09T23:43:01.726Z,28.72
2018-08-09T23:47:05.158Z,28.71
2018-08-09T23:51:08.630Z,28.70
2018-08-09T23:55:15.014Z,28.70
2018-08-09T23:59:18.475Z,28.67
